createdAt,value
2023-02-18T00:04:01.579Z,999.31
2023-02-18T00:09:05.730Z,999.39
2023-02-18T00:14:10.020Z,999.39
2023-02-18T00:19:14.053Z,999.34
2023-02-18T00:24:18.214Z,999.37
2023-02-18T00:29:22.366Z,999.23
2023-02-18T00:34:26.527Z,999.12
2023-02-18T00:39:30.669Z,998.91
2023-02-18T00:44:34.871Z,998.76
2023-02-18T00:49:39.015Z,998.56
2023-02-18T00:54:43.177Z,998.55
2023-02-18T00:59:47.326Z,998.45
2023-02-18T01:04:51.564Z,998.19
2023-02-18T01:09:55.634Z,998.12
2023-02-18T01:14:59.845Z,998.02
2023-02-18T01:20:03.982Z,998.00
2023-02-18T01:25:08.154Z,997.88
2023-02-18T01:30:12.351Z,997.77
2023-02-18T01:35:16.515Z,997.63
2023-02-18T01:40:18.717Z,997.44
2023-02-18T01:45:22.889Z,997.28
2023-02-18T01:50:27.054Z,997.19
2023-02-18T01:55:29.343Z,997.15
2023-02-18T02:00:33.507Z,997.07
2023-02-18T02:05:37.650Z,997.01
2023-02-18T02:10:41.829Z,997.15
2023-02-18T02:15:45.959Z,997.06
2023-02-18T02:20:50.129Z,997.17
2023-02-18T02:25:54.316Z,997.04
2023-02-18T02:30:58.476Z,997.07
2023-02-18T02:36:02.613Z,997.04
2023-02-18T02:41:06.770Z,997.05
2023-02-18T02:46:11.553Z,997.05
2023-02-18T02:51:15.097Z,997.11
2023-02-18T02:56:19.246Z,997.18
2023-02-18T03:01:23.469Z,997.19
2023-02-18T03:06:27.590Z,997.24
2023-02-18T03:11:31.740Z,997.24
2023-02-18T03:16:34.077Z,997.13
2023-02-18T03:21:38.210Z,996.84
2023-02-18T03:26:42.325Z,996.73
2023-02-18T03:31:46.705Z,996.58
2023-02-18T03:36:50.648Z,996.41
2023-02-18T03:41:52.917Z,996.17
2023-02-18T03:46:57.083Z,996.13
2023-02-18T03:51:59.360Z,995.97
2023-02-18T03:57:03.588Z,995.80
2023-02-18T04:02:07.696Z,995.66
2023-02-18T04:07:11.842Z,995.57
2023-02-18T04:12:15.979Z,995.44
2023-02-18T04:17:20.142Z,995.28
2023-02-18T04:22:24.333Z,995.23
2023-02-18T04:27:28.514Z,995.10
2023-02-18T04:32:32.671Z,995.05
2023-02-18T04:37:36.809Z,994.98
2023-02-18T04:42:40.941Z,994.83
2023-02-18T04:47:45.134Z,994.70
2023-02-18T04:52:49.366Z,994.55
2023-02-18T04:57:53.481Z,994.58
2023-02-18T05:02:57.633Z,994.46
2023-02-18T05:08:01.766Z,994.34
2023-02-18T05:13:05.946Z,994.28
2023-02-18T05:18:10.117Z,994.27
2023-02-18T05:28:18.469Z,993.93
2023-02-18T05:33:22.585Z,993.81
2023-02-18T05:38:26.781Z,993.67
2023-02-18T05:43:29.019Z,993.59
2023-02-18T05:48:33.242Z,993.45
2023-02-18T05:53:35.458Z,993.32
2023-02-18T05:58:39.602Z,993.26
2023-02-18T06:03:43.771Z,993.10
2023-02-18T06:08:47.976Z,993.13
2023-02-18T06:13:52.160Z,993.20
2023-02-18T06:18:56.587Z,993.08
2023-02-18T06:24:00.427Z,993.10
2023-02-18T06:29:04.592Z,992.97
2023-02-18T06:34:08.784Z,992.90
2023-02-18T06:39:12.921Z,992.78
2023-02-18T06:44:17.090Z,992.82
2023-02-18T06:49:21.287Z,992.79
2023-02-18T06:54:25.418Z,992.86
2023-02-18T06:59:29.565Z,992.90
2023-02-18T07:04:33.712Z,992.92
2023-02-18T07:09:37.876Z,992.85
2023-02-18T07:14:42.028Z,992.78
2023-02-18T07:19:46.237Z,992.69
2023-02-18T07:24:50.355Z,992.79
2023-02-18T07:29:54.561Z,992.70
2023-02-18T07:34:58.678Z,992.86
2023-02-18T07:40:00.972Z,992.80
2023-02-18T07:45:05.150Z,993.11
2023-02-18T07:50:07.391Z,993.03
2023-02-18T07:55:11.566Z,993.04
2023-02-18T08:00:15.703Z,992.93
2023-02-18T08:05:19.905Z,992.93
2023-02-18T08:10:24.034Z,993.09
2023-02-18T08:15:28.213Z,993.22
2023-02-18T08:20:32.362Z,993.33
2023-02-18T08:25:36.506Z,993.30
2023-02-18T08:30:40.861Z,993.32
2023-02-18T08:35:44.876Z,993.39
2023-02-18T08:40:49.037Z,993.59
2023-02-18T08:45:53.241Z,993.78
2023-02-18T08:50:57.356Z,993.76
2023-02-18T08:56:01.483Z,993.77
2023-02-18T09:01:06.042Z,994.02
2023-02-18T09:06:09.850Z,994.15
2023-02-18T09:11:14.003Z,994.27
2023-02-18T09:16:18.254Z,994.46
2023-02-18T09:21:22.340Z,994.71
2023-02-18T09:26:26.534Z,995.00
2023-02-18T09:31:30.758Z,995.35
2023-02-18T09:36:32.905Z,995.70
2023-02-18T09:41:37.056Z,995.79
2023-02-18T09:46:41.216Z,996.04
2023-02-18T09:51:43.500Z,996.15
2023-02-18T09:56:47.665Z,996.28
2023-02-18T10:01:51.845Z,996.41
2023-02-18T10:06:56.028Z,996.58
2023-02-18T10:12:00.142Z,996.62
2023-02-18T10:17:04.323Z,996.59
2023-02-18T10:22:08.466Z,996.48
2023-02-18T10:27:12.654Z,996.39
2023-02-18T10:32:16.811Z,996.16
2023-02-18T10:37:20.938Z,996.09
2023-02-18T10:42:25.206Z,995.93
2023-02-18T10:47:29.285Z,995.87
2023-02-18T10:52:33.528Z,995.76
2023-02-18T10:57:37.586Z,995.57
2023-02-18T11:02:41.766Z,995.62
2023-02-18T11:07:45.935Z,995.48
2023-02-18T11:12:50.095Z,995.55
2023-02-18T11:17:54.241Z,995.40
2023-02-18T11:22:58.385Z,995.31
2023-02-18T11:28:02.566Z,995.15
2023-02-18T11:33:06.743Z,995.06
2023-02-18T11:38:08.994Z,994.82
2023-02-18T11:43:13.145Z,994.76
2023-02-18T11:48:15.443Z,994.65
2023-02-18T11:53:19.606Z,994.55
2023-02-18T11:58:23.751Z,994.57
2023-02-18T12:03:27.972Z,994.60
2023-02-18T12:08:32.090Z,994.40
2023-02-18T12:13:36.246Z,994.42
2023-02-18T12:18:42.652Z,994.33
2023-02-18T12:23:46.836Z,994.36
2023-02-18T12:28:48.989Z,994.32
2023-02-18T12:33:52.907Z,994.19
2023-02-18T12:38:57.067Z,994.22
2023-02-18T12:44:01.221Z,994.13
2023-02-18T12:49:05.354Z,994.08
2023-02-18T12:54:09.542Z,994.08
2023-02-18T12:59:13.738Z,994.14
2023-02-18T13:04:17.831Z,994.08
2023-02-18T13:09:22.014Z,993.94
2023-02-18T13:14:26.197Z,993.90
2023-02-18T13:19:30.368Z,993.94
2023-02-18T13:24:34.531Z,993.81
2023-02-18T13:29:38.686Z,993.80
2023-02-18T13:34:40.940Z,993.76
2023-02-18T13:39:45.112Z,993.71
2023-02-18T13:44:49.278Z,993.73
2023-02-18T13:49:53.409Z,993.63
2023-02-18T13:54:57.584Z,993.54
2023-02-18T14:00:01.740Z,993.49
2023-02-18T14:05:05.932Z,993.64
2023-02-18T14:10:10.058Z,993.44
2023-02-18T14:15:14.218Z,993.52
2023-02-18T14:20:18.400Z,993.57
2023-02-18T14:25:22.545Z,993.55
2023-02-18T14:30:26.741Z,993.44
2023-02-18T14:35:30.985Z,993.52
2023-02-18T14:40:35.066Z,993.53
2023-02-18T14:45:39.438Z,993.45
2023-02-18T14:50:43.355Z,993.39
2023-02-18T14:55:47.602Z,993.44
2023-02-18T15:00:51.676Z,993.41
2023-02-18T15:05:55.872Z,993.41
2023-02-18T15:11:00.003Z,993.44
2023-02-18T15:16:04.208Z,993.44
2023-02-18T15:21:06.677Z,993.44
2023-02-18T15:26:11.024Z,993.35
2023-02-18T15:31:15.229Z,993.42
2023-02-18T15:36:17.024Z,993.50
2023-02-18T15:41:21.191Z,993.57
2023-02-18T15:46:25.608Z,993.49
2023-02-18T15:51:29.519Z,993.58
2023-02-18T15:56:33.704Z,993.47
2023-02-18T16:01:37.907Z,993.55
2023-02-18T16:06:41.977Z,993.60
2023-02-18T16:11:46.198Z,993.61
2023-02-18T16:16:50.376Z,993.61
2023-02-18T16:21:54.496Z,993.53
2023-02-18T16:32:02.850Z,993.65
2023-02-18T16:37:06.979Z,993.60
2023-02-18T16:42:11.165Z,993.63
2023-02-18T16:47:15.320Z,993.62
2023-02-18T16:52:19.544Z,993.56
2023-02-18T16:57:23.618Z,993.57
2023-02-18T17:02:27.757Z,993.59
2023-02-18T17:07:31.962Z,993.68
2023-02-18T17:12:41.122Z,993.70
2023-02-18T17:17:40.272Z,993.83
2023-02-18T17:22:42.530Z,993.68
2023-02-18T17:27:48.070Z,993.76
2023-02-18T17:32:48.967Z,993.80
2023-02-18T17:37:53.113Z,993.96
2023-02-18T17:42:57.286Z,993.89
2023-02-18T17:48:01.431Z,993.97
2023-02-18T17:53:05.621Z,994.03
2023-02-18T17:58:09.773Z,993.91
2023-02-18T18:03:13.915Z,993.89
2023-02-18T18:08:18.107Z,993.90
2023-02-18T18:13:22.254Z,993.90
2023-02-18T18:18:26.431Z,993.84
2023-02-18T18:23:30.574Z,993.96
2023-02-18T18:28:37.257Z,993.92
2023-02-18T18:33:38.919Z,994.03
2023-02-18T18:38:43.049Z,993.89
2023-02-18T18:43:47.243Z,993.92
2023-02-18T18:48:51.379Z,993.93
2023-02-18T18:53:55.589Z,993.93
2023-02-18T18:58:59.746Z,993.91
2023-02-18T19:04:03.940Z,993.80
2023-02-18T19:09:10.650Z,993.67
2023-02-18T19:14:12.194Z,993.63
2023-02-18T19:19:14.482Z,993.62
2023-02-18T19:24:18.664Z,993.50
2023-02-18T19:29:20.900Z,993.55
2023-02-18T19:34:25.090Z,993.50
2023-02-18T19:39:29.234Z,993.50
2023-02-18T19:44:31.473Z,993.50
2023-02-18T19:49:35.677Z,993.65
2023-02-18T19:54:39.833Z,993.56
2023-02-18T19:59:44.038Z,993.47
2023-02-18T20:04:48.196Z,993.44
2023-02-18T20:09:52.310Z,993.34
2023-02-18T20:14:54.610Z,993.40
2023-02-18T20:19:59.035Z,993.39
2023-02-18T20:25:02.907Z,993.27
2023-02-18T20:30:07.138Z,993.28
2023-02-18T20:35:11.223Z,993.20
2023-02-18T20:40:15.413Z,993.19
2023-02-18T20:45:19.531Z,993.18
2023-02-18T20:50:23.723Z,993.04
2023-02-18T20:55:27.868Z,993.15
2023-02-18T21:00:32.026Z,993.16
2023-02-18T21:05:36.211Z,993.20
2023-02-18T21:10:40.368Z,993.19
2023-02-18T21:15:44.576Z,993.18
2023-02-18T21:20:48.673Z,993.22
2023-02-18T21:25:52.856Z,993.16
2023-02-18T21:30:55.119Z,993.09
2023-02-18T21:35:59.294Z,993.07
2023-02-18T21:41:01.574Z,993.10
2023-02-18T21:46:05.701Z,993.28
2023-02-18T21:51:10.249Z,993.23
2023-02-18T21:56:14.029Z,993.22
2023-02-18T22:01:18.299Z,993.22
2023-02-18T22:06:22.356Z,993.17
2023-02-18T22:11:26.534Z,993.14
2023-02-18T22:16:30.754Z,993.10
2023-02-18T22:21:34.882Z,992.96
2023-02-18T22:26:39.007Z,992.78
2023-02-18T22:31:43.250Z,992.66
2023-02-18T22:36:47.290Z,992.42
2023-02-18T22:41:51.448Z,992.48
2023-02-18T22:46:55.686Z,992.30
2023-02-18T22:51:59.795Z,992.20
2023-02-18T22:57:03.961Z,992.10
2023-02-18T23:02:08.132Z,992.24
2023-02-18T23:07:12.324Z,992.34
2023-02-18T23:12:16.458Z,992.31
2023-02-18T23:17:20.639Z,992.23
2023-02-18T23:22:24.761Z,992.18
2023-02-18T23:27:27.038Z,992.33
2023-02-18T23:32:31.209Z,992.16
2023-02-18T23:37:33.459Z,992.05
2023-02-18T23:42:37.756Z,992.06
2023-02-18T23:47:41.827Z,992.03
2023-02-18T23:52:45.947Z,991.96
2023-02-18T23:57:50.139Z,991.89
